Time;durP1;ratioP1;P1;durP2;ratioP2;P2;SDS_P1;SDS_P2;PMS_P1;PMS_P2;Temp;Humidity;BMP_temperature;BMP_pressure;BME280_temperature;BME280_humidity;BME280_pressure;Samples;Min_cycle;Max_cycle;Signal;HPM_P1;HPM_P2
2023/09/04 00:01:29;;;;;;;0.20;0.20;;;;;;;15.40;78.90;100149.97;5026645;28;20072;-69
2023/09/04 00:03:56;;;;;;;0.30;0.30;;;;;;;15.40;78.98;100136.97;5027801;28;20065;-70
2023/09/04 00:06:22;;;;;;;0.20;0.20;;;;;;;15.39;79.42;100134.53;5044663;28;20130;-70
2023/09/04 00:08:48;;;;;;;0.22;0.22;;;;;;;15.40;80.00;100138.94;5029341;28;20047;-71
2023/09/04 00:11:14;;;;;;;0.30;0.30;;;;;;;15.39;79.26;100131.78;5029512;28;20036;-69
2023/09/04 00:13:42;;;;;;;0.80;0.40;;;;;;;15.39;79.15;100138.09;5029748;28;20060;-71
2023/09/04 00:16:08;;;;;;;0.20;0.20;;;;;;;15.39;78.84;100134.53;5049256;28;20087;-69
2023/09/04 00:18:34;;;;;;;0.20;0.20;;;;;;;15.38;79.19;100130.97;5015001;28;20235;-71
2023/09/04 00:21:00;;;;;;;0.20;0.20;;;;;;;15.37;78.80;100134.00;5026633;28;20111;-71
2023/09/04 00:23:26;;;;;;;0.20;0.20;;;;;;;15.36;78.74;100132.38;5046648;28;20500;-72
2023/09/04 00:25:54;;;;;;;0.20;0.20;;;;;;;15.31;78.91;100134.09;5012940;28;20041;-70
2023/09/04 00:28:20;;;;;;;0.20;0.20;;;;;;;15.29;79.43;100141.84;5048638;28;20091;-70
2023/09/04 00:30:48;;;;;;;0.20;0.20;;;;;;;15.29;79.76;100141.00;5013257;28;20049;-70
2023/09/04 00:33:14;;;;;;;0.20;0.20;;;;;;;15.29;80.31;100139.06;5047253;28;20045;-70
2023/09/04 00:35:40;;;;;;;0.30;0.30;;;;;;;15.28;80.33;100145.72;5028493;28;20049;-72
2023/09/04 00:38:06;;;;;;;0.22;0.22;;;;;;;15.24;80.81;100143.84;5047258;28;20052;-70
2023/09/04 00:40:33;;;;;;;0.30;0.30;;;;;;;15.19;81.23;100139.22;5047400;28;20106;-71
2023/09/04 00:42:59;;;;;;;0.30;0.30;;;;;;;15.16;81.18;100134.31;5026892;28;20048;-71
2023/09/04 00:45:25;;;;;;;0.20;0.20;;;;;;;15.15;81.05;100139.03;5046985;28;20109;-70
2023/09/04 00:47:53;;;;;;;0.20;0.20;;;;;;;15.11;80.81;100137.16;5046302;28;20052;-71
2023/09/04 00:50:22;;;;;;;0.20;0.20;;;;;;;15.16;80.62;100137.06;5031272;28;20057;-71
2023/09/04 00:52:50;;;;;;;0.20;0.20;;;;;;;15.16;80.78;100134.31;5025417;28;20075;-71
2023/09/04 00:55:16;;;;;;;0.20;0.20;;;;;;;15.19;80.66;100138.41;5030101;28;20098;-69
2023/09/04 00:57:43;;;;;;;0.20;0.20;;;;;;;15.18;80.25;100137.59;5045103;28;20054;-71
2023/09/04 01:00:13;;;;;;;0.20;0.20;;;;;;;15.15;80.64;100139.03;5045688;28;20514;-69
2023/09/04 01:02:40;;;;;;;0.20;0.20;;;;;;;15.09;81.28;100131.13;5045925;28;20084;-70
2023/09/04 01:05:07;;;;;;;0.10;0.10;;;;;;;15.09;81.53;100144.91;5046984;28;20051;-71
2023/09/04 01:07:35;;;;;;;0.20;0.20;;;;;;;15.05;81.94;100146.59;5028235;28;20816;-71
2023/09/04 01:10:03;;;;;;;0.20;0.20;;;;;;;14.99;82.60;100141.16;5045737;28;20068;-70
2023/09/04 01:12:43;;;;;;;0.20;0.20;;;;;;;15.00;82.65;100142.78;5030717;28;20076;-71
2023/09/04 01:15:10;;;;;;;0.17;0.17;;;;;;;14.96;82.70;100138.16;5028729;28;20507;-71
2023/09/04 01:17:38;;;;;;;0.20;0.20;;;;;;;14.95;82.62;100136.53;5016939;28;20092;-71
2023/09/04 01:20:14;;;;;;;;;;;;;;;14.79;82.74;100122.97;5028606;28;20096;-72
2023/09/04 01:22:41;;;;;;;0.20;0.20;;;;;;;14.88;82.65;100145.16;5039555;28;19924;-68
2023/09/04 01:25:08;;;;;;;0.20;0.20;;;;;;;14.85;82.90;100140.25;5030986;28;20045;-69
2023/09/04 01:27:41;;;;;;;0.20;0.20;;;;;;;14.86;82.53;100144.63;5047895;28;20151;-70
2023/09/04 01:30:13;;;;;;;0.20;0.20;;;;;;;14.71;82.46;100120.84;5029941;28;20465;-70
2023/09/04 01:32:44;;;;;;;0.20;0.20;;;;;;;14.83;82.79;100143.31;5027707;28;20056;-71
2023/09/04 01:35:11;;;;;;;0.20;0.20;;;;;;;14.81;83.00;100144.72;5029794;28;20060;-71
2023/09/04 01:37:38;;;;;;;;;;;;;;;14.80;83.24;100146.63;5049369;28;20088;-71
2023/09/04 01:40:07;;;;;;;0.20;0.20;;;;;;;14.77;83.52;100136.22;5027555;28;20406;-69
2023/09/04 01:42:36;;;;;;;0.20;0.20;;;;;;;14.74;83.83;100142.31;5045015;28;20052;-70
2023/09/04 01:45:03;;;;;;;0.20;0.20;;;;;;;14.71;84.28;100135.44;5013626;28;20056;-71
2023/09/04 01:47:32;;;;;;;;;;;;;;;14.71;84.70;100142.88;5011930;28;20061;-70
2023/09/04 01:49:58;;;;;;;0.20;0.20;;;;;;;14.65;84.46;100138.53;5028011;28;19936;-71
2023/09/04 01:52:24;;;;;;;0.20;0.20;;;;;;;14.65;84.75;100133.03;5044918;28;20053;-70
2023/09/04 01:54:50;;;;;;;0.10;0.10;;;;;;;14.54;85.49;100127.66;5027624;28;20715;-69
2023/09/04 01:57:18;;;;;;;0.20;0.20;;;;;;;14.59;85.68;100144.09;5044644;28;20519;-69
2023/09/04 01:59:44;;;;;;;0.25;0.25;;;;;;;14.59;86.25;100149.59;5027602;28;20642;-70
2023/09/04 02:02:11;;;;;;;0.20;0.20;;;;;;;14.60;86.07;100147.69;5044180;28;20495;-68
2023/09/04 02:04:37;;;;;;;0.20;0.20;;;;;;;14.55;86.31;100142.22;5026240;28;20063;-68
2023/09/04 02:07:04;;;;;;;0.20;0.20;;;;;;;14.55;86.86;100140.31;5027992;28;20051;-70
2023/09/04 02:09:30;;;;;;;0.20;0.20;;;;;;;14.55;86.96;100158.72;5029019;28;20057;-68
2023/09/04 02:11:56;;;;;;;0.20;0.20;;;;;;;14.51;87.27;100154.94;5026674;28;20065;-70
2023/09/04 02:14:24;;;;;;;0.20;0.20;;;;;;;14.48;87.06;100161.03;5045814;28;20056;-70
2023/09/04 02:16:51;;;;;;;0.10;0.10;;;;;;;14.48;87.42;100167.34;5012388;28;20045;-70
2023/09/04 02:19:18;;;;;;;0.20;0.20;;;;;;;14.46;87.69;100164.06;5047596;28;20064;-70
2023/09/04 02:22:04;;;;;;;0.17;0.17;;;;;;;14.43;88.09;100172.91;5030768;28;20136;-70
2023/09/04 02:24:32;;;;;;;0.20;0.20;;;;;;;14.38;88.27;100168.28;5045689;28;20554;-68
2023/09/04 02:26:58;;;;;;;0.20;0.20;;;;;;;14.40;88.29;100179.78;5028396;28;20729;-70
2023/09/04 02:29:26;;;;;;;0.20;0.20;;;;;;;14.39;88.64;100180.91;5028557;28;20514;-70
2023/09/04 02:31:54;;;;;;;0.20;0.20;;;;;;;14.40;88.73;100182.56;5048839;28;20045;-70
2023/09/04 02:34:20;;;;;;;0.20;0.20;;;;;;;14.35;88.68;100179.88;5027417;28;20067;-71
2023/09/04 02:36:46;;;;;;;0.20;0.20;;;;;;;14.37;88.78;100185.88;5009192;28;20048;-70
2023/09/04 02:39:12;;;;;;;0.20;0.20;;;;;;;14.37;89.19;100187.84;5025725;28;20541;-69
2023/09/04 02:41:38;;;;;;;0.28;0.28;;;;;;;14.37;89.54;100190.59;5010007;28;20049;-70
2023/09/04 02:44:05;;;;;;;0.20;0.20;;;;;;;14.37;89.26;100190.59;5042309;28;20140;-71
2023/09/04 02:46:33;;;;;;;;;;;;;;;14.33;89.68;100204.91;5028090;28;20674;-70
2023/09/04 02:48:59;;;;;;;;;;;;;;;14.33;89.21;100193.09;5028332;28;19928;-70
2023/09/04 02:51:25;;;;;;;0.20;0.20;;;;;;;14.32;88.61;100184.00;5027426;28;20379;-72
2023/09/04 02:53:51;;;;;;;0.10;0.10;;;;;;;14.33;88.86;100199.41;5046652;28;20056;-71
2023/09/04 02:56:17;;;;;;;0.20;0.20;;;;;;;14.29;89.55;100195.59;5044759;28;20084;-71
2023/09/04 02:58:44;;;;;;;0.20;0.20;;;;;;;14.30;89.59;100188.97;5046187;28;20090;-70
2023/09/04 03:01:13;;;;;;;0.20;0.20;;;;;;;14.30;89.33;100188.19;5027856;28;20053;-72
2023/09/04 03:03:41;;;;;;;0.20;0.20;;;;;;;14.37;89.30;100196.09;5043754;28;20053;-72
2023/09/04 03:06:08;;;;;;;0.20;0.20;;;;;;;14.40;88.57;100195.50;5025137;28;20053;-71
2023/09/04 03:08:34;;;;;;;0.20;0.20;;;;;;;14.42;88.28;100194.06;5045187;28;20045;-71
2023/09/04 03:11:00;;;;;;;0.20;0.20;;;;;;;14.44;87.79;100197.38;5045450;28;20051;-69
2023/09/04 03:13:26;;;;;;;0.20;0.20;;;;;;;14.45;87.76;100199.03;5026242;28;20119;-71
2023/09/04 03:15:52;;;;;;;0.20;0.20;;;;;;;14.51;87.58;100205.25;5026909;28;20080;-71
2023/09/04 03:18:18;;;;;;;0.20;0.20;;;;;;;14.54;87.33;100207.47;5026310;28;20049;-70
2023/09/04 03:20:47;;;;;;;0.20;0.20;;;;;;;14.57;86.95;100209.63;5044722;28;20147;-69
2023/09/04 03:23:13;;;;;;;0.20;0.20;;;;;;;14.62;86.24;100214.25;5026076;28;20438;-68
2023/09/04 03:25:39;;;;;;;0.20;0.20;;;;;;;14.64;85.80;100212.03;5044518;28;20480;-69
2023/09/04 03:28:07;;;;;;;0.20;0.20;;;;;;;14.76;85.17;100230.91;5015335;28;20135;-69
2023/09/04 03:30:36;;;;;;;0.20;0.20;;;;;;;14.78;84.59;100228.69;5044502;28;20297;-68
2023/09/04 03:33:04;;;;;;;0.20;0.20;;;;;;;14.53;84.16;100183.81;5025744;28;20144;-70
2023/09/04 03:35:31;;;;;;;0.20;0.20;;;;;;;14.86;84.05;100227.22;5044967;28;20045;-69
2023/09/04 03:37:58;;;;;;;0.20;0.20;;;;;;;14.93;84.13;100233.19;5043221;28;20075;-68
2023/09/04 03:40:25;;;;;;;0.20;0.20;;;;;;;14.99;83.29;100232.00;5027042;28;20103;-70
2023/09/04 03:42:52;;;;;;;0.20;0.20;;;;;;;15.05;82.79;100234.69;5045059;28;20059;-71
2023/09/04 03:45:19;;;;;;;0.20;0.20;;;;;;;15.09;82.43;100233.00;5030146;28;20053;-70
2023/09/04 03:47:45;;;;;;;0.20;0.20;;;;;;;15.13;82.75;100225.78;5048684;28;20041;-72
2023/09/04 03:50:12;;;;;;;0.20;0.20;;;;;;;15.19;82.62;100227.34;5016426;28;20156;-72
2023/09/04 03:52:39;;;;;;;0.20;0.20;;;;;;;15.24;82.17;100234.75;5047049;28;20072;-71
2023/09/04 03:55:08;;;;;;;0.20;0.20;;;;;;;15.32;81.95;100228.59;5045994;28;20095;-71
2023/09/04 03:57:39;;;;;;;0.20;0.20;;;;;;;15.36;81.01;100229.63;5011670;28;20154;-71
2023/09/04 04:00:16;;;;;;;0.20;0.20;;;;;;;15.40;81.23;100227.91;5031095;28;20072;-71
2023/09/04 04:02:46;;;;;;;0.20;0.20;;;;;;;15.44;80.80;100234.44;5030150;28;20088;-70
2023/09/04 04:05:14;;;;;;;0.22;0.22;;;;;;;15.48;80.92;100222.84;5027928;28;20053;-72
2023/09/04 04:07:41;;;;;;;0.20;0.20;;;;;;;15.50;80.50;100224.19;5009787;28;20045;-70
2023/09/04 04:10:10;;;;;;;0.20;0.20;;;;;;;15.54;80.16;100224.41;5004663;28;20047;-68
2023/09/04 04:12:36;;;;;;;0.20;0.20;;;;;;;15.60;80.07;100212.19;5016262;28;20103;-70
2023/09/04 04:15:06;;;;;;;0.20;0.20;;;;;;;15.69;79.37;100206.84;5052082;28;20461;-70
2023/09/04 04:17:32;;;;;;;0.20;0.20;;;;;;;15.82;79.24;100217.09;5006822;28;20067;-71
2023/09/04 04:19:58;;;;;;;0.20;0.20;;;;;;;15.86;79.42;100220.06;4690458;28;10000194;-69
2023/09/04 04:22:24;;;;;;;0.20;0.20;;;;;;;15.93;78.98;100230.75;5041173;28;20069;-69
2023/09/04 04:24:51;;;;;;;0.30;0.30;;;;;;;15.92;79.14;100215.31;5043930;28;20049;-70
2023/09/04 04:27:18;;;;;;;0.20;0.20;;;;;;;16.08;78.58;100238.78;5021503;28;20072;-69
2023/09/04 04:29:47;;;;;;;0.30;0.30;;;;;;;16.11;78.01;100242.88;5043245;28;20801;-71
2023/09/04 04:32:14;;;;;;;0.20;0.20;;;;;;;16.18;77.59;100248.81;5016173;28;20112;-69
2023/09/04 04:34:41;;;;;;;0.30;0.30;;;;;;;16.26;77.71;100244.53;5023071;28;20073;-70
2023/09/04 04:37:09;;;;;;;0.20;0.20;;;;;;;16.35;77.08;100244.66;4984826;28;20044;-69
2023/09/04 04:39:37;;;;;;;0.30;0.30;;;;;;;16.41;77.01;100238.75;4999270;28;20277;-70
2023/09/04 04:42:04;;;;;;;0.30;0.30;;;;;;;16.49;76.89;100240.00;5041887;28;20049;-70
2023/09/04 04:44:32;;;;;;;0.30;0.30;;;;;;;16.54;76.84;100244.59;5022988;28;20053;-70
2023/09/04 04:46:59;;;;;;;0.30;0.30;;;;;;;16.57;76.40;100242.06;5028072;28;20053;-71
2023/09/04 04:49:26;;;;;;;0.30;0.30;;;;;;;16.63;75.77;100240.03;5009260;28;20048;-71
2023/09/04 04:51:57;;;;;;;0.30;0.30;;;;;;;16.71;75.39;100244.81;5025259;28;20534;-69
2023/09/04 04:54:24;;;;;;;0.30;0.30;;;;;;;16.74;74.93;100243.41;5008390;28;20537;-70
2023/09/04 04:56:50;;;;;;;0.20;0.20;;;;;;;16.83;74.61;100249.84;5028370;28;20080;-72
2023/09/04 04:59:17;;;;;;;0.30;0.30;;;;;;;16.90;74.13;100243.91;4996505;28;20053;-71
2023/09/04 05:01:46;;;;;;;;;;;;;;;16.96;73.93;100241.88;5044608;28;20044;-70
2023/09/04 05:04:13;;;;;;;0.20;0.20;;;;;;;16.94;72.88;100236.66;5034218;28;20007;-71
2023/09/04 05:06:39;;;;;;;0.30;0.30;;;;;;;17.07;72.92;100248.84;5027199;28;20147;-71
2023/09/04 05:09:06;;;;;;;0.20;0.20;;;;;;;17.18;72.42;100248.66;5012820;28;20052;-71
2023/09/04 05:11:34;;;;;;;0.30;0.30;;;;;;;17.14;72.31;100242.91;5029194;28;20100;-71
2023/09/04 05:14:00;;;;;;;0.28;0.28;;;;;;;17.24;71.73;100255.69;5029370;28;20037;-72
2023/09/04 05:16:28;;;;;;;0.30;0.30;;;;;;;17.31;71.44;100247.78;5021808;28;20132;-72
2023/09/04 05:18:56;;;;;;;0.20;0.20;;;;;;;17.38;71.44;100241.84;5008849;28;20045;-69
2023/09/04 05:21:23;;;;;;;0.30;0.30;;;;;;;17.47;70.58;100245.53;5027921;28;20076;-71
2023/09/04 05:23:49;;;;;;;0.20;0.20;;;;;;;17.51;70.12;100240.19;5028678;28;20060;-71
2023/09/04 05:26:15;;;;;;;0.22;0.22;;;;;;;17.53;69.40;100241.50;5046186;28;20045;-70
2023/09/04 05:28:43;;;;;;;0.30;0.30;;;;;;;17.56;69.33;100238.13;5023176;28;20076;-71
2023/09/04 05:31:09;;;;;;;;;;;;;;;17.60;69.15;100245.81;5020607;28;20532;-71
2023/09/04 05:33:35;;;;;;;0.30;0.30;;;;;;;17.69;68.69;100238.38;5027191;28;19924;-71
2023/09/04 05:36:04;;;;;;;0.30;0.30;;;;;;;17.80;68.67;100239.78;5003368;28;20049;-71
2023/09/04 05:38:30;;;;;;;0.30;0.30;;;;;;;17.85;68.83;100234.13;5044939;28;20373;-71
2023/09/04 05:40:57;;;;;;;0.40;0.40;;;;;;;17.93;68.21;100238.09;5027731;28;20049;-72
2023/09/04 05:43:24;;;;;;;0.30;0.30;;;;;;;17.95;67.88;100233.09;5045895;28;20049;-71
2023/09/04 05:45:50;;;;;;;0.30;0.30;;;;;;;18.15;67.18;100242.03;5044684;28;20048;-71
2023/09/04 05:48:16;;;;;;;0.30;0.30;;;;;;;18.44;66.20;100237.97;5043330;28;20075;-71
2023/09/04 05:50:42;;;;;;;0.30;0.30;;;;;;;18.62;65.02;100238.06;5009085;28;20098;-72
2023/09/04 05:53:10;;;;;;;0.30;0.30;;;;;;;18.77;64.38;100234.88;5027592;28;20533;-71
2023/09/04 05:55:36;;;;;;;0.30;0.30;;;;;;;18.99;63.69;100236.78;5041824;28;20599;-70
2023/09/04 05:58:03;;;;;;;0.30;0.30;;;;;;;19.24;62.56;100230.78;5025556;28;20076;-72
2023/09/04 06:00:29;;;;;;;0.30;0.30;;;;;;;19.42;61.38;100224.13;5046070;28;20040;-72
2023/09/04 06:02:55;;;;;;;0.30;0.30;;;;;;;19.58;60.83;100225.59;5045330;28;20526;-71
2023/09/04 06:05:21;;;;;;;0.30;0.30;;;;;;;19.76;60.16;100223.66;5047293;28;20044;-71
2023/09/04 06:07:48;;;;;;;0.30;0.30;;;;;;;19.90;59.46;100227.06;5044965;28;20144;-72
2023/09/04 06:10:16;;;;;;;0.30;0.30;;;;;;;20.12;59.55;100225.25;5047179;28;20083;-71
2023/09/04 06:12:42;;;;;;;0.30;0.30;;;;;;;20.24;58.63;100216.28;5045793;28;20036;-71
2023/09/04 06:15:09;;;;;;;0.30;0.30;;;;;;;20.22;57.78;100222.16;5016272;28;20045;-72
2023/09/04 06:17:35;;;;;;;;;;;;;;;20.21;58.02;100231.63;5035669;28;20128;-71
2023/09/04 06:20:03;;;;;;;0.30;0.30;;;;;;;20.33;57.89;100225.38;5035917;28;20066;-71
2023/09/04 06:22:29;;;;;;;0.30;0.30;;;;;;;20.46;56.89;100228.28;5018206;28;20123;-71
2023/09/04 06:24:55;;;;;;;0.30;0.30;;;;;;;20.53;56.65;100228.63;5036688;28;20077;-71
2023/09/04 06:27:23;;;;;;;0.30;0.30;;;;;;;20.66;56.26;100226.75;5025232;28;20519;-71
2023/09/04 06:29:49;;;;;;;0.30;0.30;;;;;;;20.75;55.64;100229.50;5045347;28;20045;-72
2023/09/04 06:32:15;;;;;;;0.38;0.38;;;;;;;20.90;55.58;100242.03;5030787;28;20041;-71
2023/09/04 06:34:41;;;;;;;0.30;0.30;;;;;;;21.10;54.93;100243.25;5046177;28;20045;-72
2023/09/04 06:37:08;;;;;;;0.52;0.40;;;;;;;21.32;53.57;100233.78;5047200;28;20047;-71
2023/09/04 06:39:34;;;;;;;0.30;0.30;;;;;;;21.37;53.26;100239.16;5047169;28;20053;-71
2023/09/04 06:42:00;;;;;;;0.30;0.30;;;;;;;21.51;52.92;100229.72;5029927;28;20072;-72
2023/09/04 06:44:32;;;;;;;0.30;0.30;;;;;;;21.73;52.22;100238.94;5013500;28;20052;-70
2023/09/04 06:46:58;;;;;;;0.40;0.40;;;;;;;21.84;51.47;100236.53;5028117;28;20056;-71
2023/09/04 06:49:24;;;;;;;0.35;0.35;;;;;;;22.02;51.20;100248.34;5047535;28;20045;-71
2023/09/04 06:51:51;;;;;;;0.30;0.30;;;;;;;22.21;50.22;100248.63;5046311;28;20132;-71
2023/09/04 06:54:17;;;;;;;0.30;0.30;;;;;;;22.32;49.64;100249.00;5048087;28;20045;-71
2023/09/04 06:56:43;;;;;;;0.30;0.30;;;;;;;22.41;48.95;100243.34;5029448;28;20052;-71
2023/09/04 06:59:09;;;;;;;0.40;0.40;;;;;;;22.44;48.73;100242.66;5045201;28;20080;-71
2023/09/04 07:01:36;;;;;;;0.30;0.30;;;;;;;22.59;48.46;100249.56;5044823;28;20069;-71
2023/09/04 07:04:03;;;;;;;0.30;0.30;;;;;;;22.91;47.40;100244.25;5046972;28;20055;-71
2023/09/04 07:06:29;;;;;;;0.30;0.30;;;;;;;23.27;46.75;100252.16;5047990;28;20067;-72
2023/09/04 07:08:55;;;;;;;0.30;0.30;;;;;;;23.70;45.45;100244.28;5046561;28;20190;-71
2023/09/04 07:11:22;;;;;;;0.43;0.40;;;;;;;24.07;44.53;100246.97;5048760;28;20080;-70
2023/09/04 07:13:48;;;;;;;0.40;0.40;;;;;;;24.33;44.19;100246.47;5045749;28;20037;-71
2023/09/04 07:16:14;;;;;;;0.30;0.30;;;;;;;24.60;43.34;100252.38;5045678;28;20516;-71
2023/09/04 07:18:42;;;;;;;0.30;0.30;;;;;;;24.59;43.17;100249.94;5033565;28;20688;-71
2023/09/04 07:21:08;;;;;;;0.70;0.50;;;;;;;24.59;43.33;100253.56;5033538;28;20055;-70
2023/09/04 07:23:34;;;;;;;0.30;0.30;;;;;;;24.43;43.36;100250.72;5051593;28;20052;-70
2023/09/04 07:26:01;;;;;;;0.30;0.30;;;;;;;24.25;43.66;100246.66;5011481;28;20477;-71
2023/09/04 07:28:27;;;;;;;0.40;0.40;;;;;;;24.18;43.36;100239.69;5014648;28;20050;-69
2023/09/04 07:31:12;;;;;;;0.40;0.40;;;;;;;24.29;43.64;100251.16;5034303;28;20098;-70
2023/09/04 07:33:38;;;;;;;0.38;0.38;;;;;;;24.56;43.06;100253.44;5017038;28;20048;-70
2023/09/04 07:36:06;;;;;;;0.30;0.30;;;;;;;24.96;42.38;100257.25;5011519;28;20049;-70
2023/09/04 07:38:32;;;;;;;0.40;0.40;;;;;;;25.23;41.63;100252.69;5030990;28;20053;-70
2023/09/04 07:41:00;;;;;;;0.40;0.40;;;;;;;25.46;41.29;100255.63;5033467;28;20048;-71
2023/09/04 07:43:25;;;;;;;;;;;;;;;25.42;40.93;100262.31;5050069;28;20048;-71
2023/09/04 07:45:54;;;;;;;0.30;0.30;;;;;;;25.39;40.61;100254.66;5050836;28;19952;-73
2023/09/04 07:48:21;;;;;;;0.38;0.38;;;;;;;25.25;40.57;100257.94;5028616;28;20065;-71
2023/09/04 07:50:48;;;;;;;0.40;0.40;;;;;;;25.24;41.12;100259.91;5033470;28;20449;-72
2023/09/04 07:53:16;;;;;;;0.40;0.40;;;;;;;25.39;40.29;100252.69;5032025;28;20049;-71
2023/09/04 07:55:42;;;;;;;0.32;0.32;;;;;;;25.16;40.88;100260.94;5049768;28;20060;-71
2023/09/04 07:58:09;;;;;;;0.32;0.32;;;;;;;24.94;41.02;100262.41;5050489;28;20080;-70
2023/09/04 08:00:36;;;;;;;0.30;0.30;;;;;;;24.52;41.21;100244.16;5049717;28;20053;-71
2023/09/04 08:03:02;;;;;;;0.35;0.35;;;;;;;24.23;41.92;100266.53;5051180;28;20192;-70
2023/09/04 08:05:28;;;;;;;0.40;0.40;;;;;;;24.03;42.22;100269.19;5049342;28;20032;-70
2023/09/04 08:07:54;;;;;;;0.40;0.40;;;;;;;24.51;41.18;100268.50;5049196;28;20051;-71
2023/09/04 08:10:22;;;;;;;0.40;0.40;;;;;;;25.10;40.01;100270.78;5049486;28;20048;-70
2023/09/04 08:12:48;;;;;;;0.38;0.38;;;;;;;25.16;39.35;100260.94;5050560;28;20044;-70
2023/09/04 08:15:15;;;;;;;0.40;0.40;;;;;;;25.04;39.51;100264.63;5032684;28;20140;-71
2023/09/04 08:17:43;;;;;;;0.40;0.40;;;;;;;25.62;38.55;100269.63;5032731;28;20451;-71
2023/09/04 08:20:10;;;;;;;0.43;0.43;;;;;;;26.19;37.35;100259.97;5049438;28;20049;-71
2023/09/04 08:22:37;;;;;;;0.50;0.50;;;;;;;26.74;36.60;100259.78;5014173;28;20072;-70
2023/09/04 08:25:03;;;;;;;0.50;0.50;;;;;;;27.42;35.27;100256.44;5033244;28;20095;-72
2023/09/04 08:27:31;;;;;;;0.40;0.40;;;;;;;28.03;34.33;100264.84;5047645;28;20060;-70
2023/09/04 08:29:57;;;;;;;0.50;0.50;;;;;;;28.43;33.80;100270.13;5026947;28;20470;-70
2023/09/04 08:32:24;;;;;;;0.30;0.30;;;;;;;28.17;33.88;100269.84;5031119;28;20115;-71
2023/09/04 08:34:51;;;;;;;0.32;0.32;;;;;;;27.31;35.68;100258.28;5009914;28;20053;-71
2023/09/04 08:37:17;;;;;;;0.40;0.40;;;;;;;26.41;36.51;100268.78;5007369;28;20053;-71
2023/09/04 08:39:43;;;;;;;0.40;0.40;;;;;;;26.29;37.36;100269.78;5028437;28;20072;-71
2023/09/04 08:42:11;;;;;;;0.40;0.40;;;;;;;26.44;36.79;100268.03;5046315;28;20416;-72
2023/09/04 08:44:41;;;;;;;0.43;0.43;;;;;;;26.52;36.28;100271.78;5031569;28;20045;-70
2023/09/04 08:47:09;;;;;;;0.40;0.40;;;;;;;26.92;35.85;100272.47;5047368;28;20053;-71
2023/09/04 08:49:37;;;;;;;0.40;0.40;;;;;;;27.14;35.05;100274.47;5047845;28;20045;-72
2023/09/04 08:52:05;;;;;;;0.55;0.50;;;;;;;27.21;34.68;100267.31;5025099;28;20054;-71
2023/09/04 08:54:32;;;;;;;0.43;0.43;;;;;;;27.40;34.76;100278.47;5031272;28;20044;-71
2023/09/04 08:56:59;;;;;;;0.50;0.50;;;;;;;27.75;34.37;100268.09;5030600;28;20045;-71
2023/09/04 08:59:25;;;;;;;0.50;0.50;;;;;;;28.12;33.29;100277.78;5032377;28;20525;-72
2023/09/04 09:01:55;;;;;;;0.50;0.50;;;;;;;27.78;33.67;100274.97;5049659;28;20051;-71
2023/09/04 09:04:22;;;;;;;0.50;0.50;;;;;;;27.44;33.60;100265.28;5051433;28;20086;-72
2023/09/04 09:06:49;;;;;;;;;;;;;;;27.24;33.01;100274.97;5051776;28;20481;-70
2023/09/04 09:09:15;;;;;;;0.50;0.50;;;;;;;27.36;33.49;100271.97;5014491;28;19955;-70
2023/09/04 09:11:42;;;;;;;0.60;0.60;;;;;;;28.08;32.61;100274.13;5019186;28;20092;-72
2023/09/04 09:14:08;;;;;;;0.60;0.60;;;;;;;28.27;32.58;100265.53;5044177;28;20095;-72
2023/09/04 09:16:35;;;;;;;0.60;0.60;;;;;;;28.62;32.42;100271.91;5048339;28;20048;-72
2023/09/04 09:19:03;;;;;;;0.60;0.60;;;;;;;29.06;31.94;100266.69;5027090;28;20548;-70
2023/09/04 09:21:32;;;;;;;0.60;0.60;;;;;;;28.87;31.17;100279.78;5048370;28;20512;-72
2023/09/04 09:24:18;;;;;;;0.68;0.68;;;;;;;28.75;31.83;100266.00;5030819;28;20393;-71
2023/09/04 09:26:46;;;;;;;0.60;0.60;;;;;;;29.21;31.35;100276.00;5027758;28;20053;-70
2023/09/04 09:29:13;;;;;;;0.60;0.60;;;;;;;29.38;30.24;100272.50;5036784;28;20045;-72
2023/09/04 09:31:42;;;;;;;0.50;0.50;;;;;;;29.00;30.94;100275.47;5030257;28;20056;-71
2023/09/04 09:34:10;;;;;;;0.55;0.55;;;;;;;28.76;30.95;100276.06;5048178;28;20087;-71
2023/09/04 09:36:37;;;;;;;0.60;0.60;;;;;;;28.71;30.95;100278.00;5049136;28;20076;-70
2023/09/04 09:39:05;;;;;;;0.60;0.60;;;;;;;29.12;30.86;100267.91;5014506;28;20049;-71
2023/09/04 09:41:32;;;;;;;0.60;0.60;;;;;;;29.52;30.69;100279.47;5013818;28;20127;-71
2023/09/04 09:44:01;;;;;;;0.60;0.60;;;;;;;29.54;29.80;100279.88;5028538;28;20045;-70
2023/09/04 09:46:28;;;;;;;0.60;0.60;;;;;;;28.88;31.44;100275.78;5048771;28;20077;-72
2023/09/04 09:48:54;;;;;;;0.50;0.50;;;;;;;29.07;31.47;100268.28;5047102;28;20131;-70
2023/09/04 09:51:23;;;;;;;0.60;0.60;;;;;;;29.35;30.64;100278.09;5014272;28;20539;-71
2023/09/04 09:53:51;;;;;;;0.50;0.50;;;;;;;29.11;30.85;100280.38;5032123;28;20053;-71
2023/09/04 09:56:18;;;;;;;0.60;0.60;;;;;;;28.89;30.87;100276.59;5048003;28;20049;-70
2023/09/04 09:58:46;;;;;;;0.65;0.50;;;;;;;28.71;31.60;100274.41;5029428;28;20056;-71
2023/09/04 10:01:13;;;;;;;0.40;0.40;;;;;;;28.59;31.77;100278.31;5030401;28;20163;-70
2023/09/04 10:03:39;;;;;;;;;;;;;;;28.27;32.42;100276.00;5014732;28;20040;-71
2023/09/04 10:06:07;;;;;;;0.60;0.60;;;;;;;28.02;31.91;100266.06;5031490;28;19932;-71
2023/09/04 10:08:38;;;;;;;0.60;0.60;;;;;;;27.95;31.84;100280.00;5048337;28;20053;-70
2023/09/04 10:11:06;;;;;;;0.50;0.50;;;;;;;28.02;31.87;100282.09;5010491;28;20292;-71
2023/09/04 10:13:37;;;;;;;0.60;0.60;;;;;;;28.07;31.83;100278.94;5028176;28;20579;-70
2023/09/04 10:16:07;;;;;;;0.52;0.52;;;;;;;28.27;31.95;100278.81;5016589;28;20512;-71
2023/09/04 10:18:40;;;;;;;0.50;0.50;;;;;;;28.99;30.81;100289.94;5047420;28;20041;-71
2023/09/04 10:21:13;;;;;;;0.60;0.60;;;;;;;29.38;29.59;100289.41;5025515;28;20057;-71
2023/09/04 10:23:44;;;;;;;0.60;0.60;;;;;;;29.01;30.29;100290.34;5010349;28;20041;-71
2023/09/04 10:26:15;;;;;;;0.50;0.50;;;;;;;28.80;31.17;100282.50;5045049;28;20053;-71
2023/09/04 10:28:48;;;;;;;0.60;0.60;;;;;;;29.10;31.40;100290.03;5048255;28;20044;-72
2023/09/04 10:31:15;;;;;;;0.43;0.43;;;;;;;29.25;30.43;100288.09;5046432;28;20049;-72
2023/09/04 10:33:41;;;;;;;0.50;0.50;;;;;;;28.84;31.09;100281.38;5030054;28;20515;-73
2023/09/04 10:36:08;;;;;;;0.50;0.50;;;;;;;28.30;32.25;100280.84;5047107;28;20045;-71
2023/09/04 10:38:35;;;;;;;;;;;;;;;28.35;32.35;100277.66;5029152;28;20041;-71
2023/09/04 10:41:04;;;;;;;;;;;;;;;28.68;32.08;100275.19;5028558;28;19928;-70
2023/09/04 10:43:38;;;;;;;0.50;0.50;;;;;;;28.08;32.47;100283.34;5024192;28;19928;-73
2023/09/04 10:46:05;;;;;;;0.60;0.60;;;;;;;28.06;32.62;100282.13;5048262;28;20052;-71
2023/09/04 10:48:50;;;;;;;0.70;0.70;;;;;;;28.45;30.92;100285.41;5028393;28;20099;-70
2023/09/04 10:51:35;;;;;;;0.70;0.70;;;;;;;28.65;30.94;100282.38;5012863;28;20134;-72
2023/09/04 10:54:23;;;;;;;0.50;0.50;;;;;;;28.52;31.52;100287.50;5046764;28;20677;-72
2023/09/04 10:56:56;;;;;;;0.50;0.50;;;;;;;27.83;32.06;100283.88;5046831;28;20045;-70
2023/09/04 10:59:22;;;;;;;0.40;0.40;;;;;;;27.50;32.71;100279.81;4996851;28;20098;-72
2023/09/04 11:01:49;;;;;;;;;;;;;;;27.16;32.98;100285.28;5014387;28;20053;-70
2023/09/04 11:04:32;;;;;;;0.40;0.40;;;;;;;26.83;33.12;100292.34;4999401;28;19924;-71
2023/09/04 11:07:25;;;;;;;0.40;0.40;;;;;;;26.57;33.02;100289.09;5048944;28;20487;-71
2023/09/04 11:09:53;;;;;;;0.40;0.40;;;;;;;26.41;33.79;100282.78;5045303;28;20053;-71
2023/09/04 11:12:24;;;;;;;0.50;0.50;;;;;;;26.41;33.26;100288.41;5038666;28;20098;-71
2023/09/04 11:14:52;;;;;;;0.60;0.60;;;;;;;26.77;33.00;100283.44;5013929;28;20584;-72
2023/09/04 11:17:21;;;;;;;0.50;0.50;;;;;;;27.34;32.33;100281.97;5044966;28;20520;-73
2023/09/04 11:19:50;;;;;;;0.40;0.40;;;;;;;27.42;31.60;100286.47;5046357;28;20139;-71
2023/09/04 11:22:19;;;;;;;0.47;0.47;;;;;;;27.22;31.87;100275.38;5044955;28;20128;-69
2023/09/04 11:24:45;;;;;;;0.43;0.43;;;;;;;27.12;32.02;100285.25;5010365;28;20623;-70
2023/09/04 11:27:12;;;;;;;0.40;0.40;;;;;;;26.97;32.12;100278.59;5040969;28;20044;-71
2023/09/04 11:29:39;;;;;;;0.40;0.40;;;;;;;26.77;32.14;100272.22;5028965;28;20044;-70
2023/09/04 11:32:07;;;;;;;0.40;0.40;;;;;;;26.57;32.87;100279.91;5047536;28;20049;-71